createdAt,value
2023-04-13T00:00:36.000Z,165
2023-04-13T00:01:52.000Z,167
2023-04-13T00:03:08.000Z,167
2023-04-13T00:04:25.000Z,165
2023-04-13T00:05:41.000Z,165
2023-04-13T00:06:56.000Z,164
2023-04-13T00:09:29.000Z,168
2023-04-13T00:10:45.000Z,167
2023-04-13T00:12:01.000Z,166
2023-04-13T00:13:17.000Z,165
2023-04-13T00:14:33.000Z,166
2023-04-13T00:15:50.000Z,167
2023-04-13T00:17:06.000Z,168
2023-04-13T00:18:22.000Z,168
2023-04-13T00:19:38.000Z,168
2023-04-13T00:20:55.000Z,167
2023-04-13T00:22:11.000Z,163
2023-04-13T00:23:26.000Z,165
2023-04-13T00:24:42.000Z,167
2023-04-13T00:27:15.000Z,168
2023-04-13T00:28:31.000Z,168
2023-04-13T00:29:47.000Z,167
2023-04-13T00:31:04.000Z,163
2023-04-13T00:32:20.000Z,167
2023-04-13T00:33:36.000Z,164
2023-04-13T00:34:52.000Z,165
2023-04-13T00:36:08.000Z,168
2023-04-13T00:37:25.000Z,168
2023-04-13T00:38:41.000Z,167
2023-04-13T00:39:56.000Z,163
2023-04-13T00:41:12.000Z,164
2023-04-13T00:42:29.000Z,167
2023-04-13T00:43:45.000Z,163
2023-04-13T00:45:01.000Z,163
2023-04-13T00:46:17.000Z,164
2023-04-13T00:47:34.000Z,165
2023-04-13T00:48:50.000Z,168
2023-04-13T00:50:06.000Z,167
2023-04-13T00:51:22.000Z,167
2023-04-13T00:52:39.000Z,162
2023-04-13T00:53:55.000Z,163
2023-04-13T00:55:11.000Z,168
2023-04-13T00:56:26.000Z,168
2023-04-13T00:57:42.000Z,167
2023-04-13T00:58:59.000Z,163
2023-04-13T01:00:15.000Z,164
2023-04-13T01:01:31.000Z,168
2023-04-13T01:02:47.000Z,165
2023-04-13T01:04:04.000Z,168
2023-04-13T01:05:20.000Z,168
2023-04-13T01:06:36.000Z,169
2023-04-13T01:07:52.000Z,165
2023-04-13T01:09:09.000Z,166
2023-04-13T01:10:25.000Z,167
2023-04-13T01:11:41.000Z,165
2023-04-13T01:12:56.000Z,169
2023-04-13T01:14:13.000Z,164
2023-04-13T01:15:29.000Z,164
2023-04-13T01:16:45.000Z,166
2023-04-13T01:18:01.000Z,165
2023-04-13T01:19:17.000Z,165
2023-04-13T01:20:34.000Z,165
2023-04-13T01:21:50.000Z,169
2023-04-13T01:23:06.000Z,174
2023-04-13T01:24:22.000Z,177
2023-04-13T01:25:39.000Z,167
2023-04-13T01:26:55.000Z,165
2023-04-13T01:28:11.000Z,166
2023-04-13T01:29:26.000Z,167
2023-04-13T01:30:43.000Z,165
2023-04-13T01:31:59.000Z,168
2023-04-13T01:33:15.000Z,167
2023-04-13T01:34:31.000Z,165
2023-04-13T01:35:48.000Z,165
2023-04-13T01:37:04.000Z,165
2023-04-13T01:38:20.000Z,168
2023-04-13T01:39:36.000Z,167
2023-04-13T01:40:52.000Z,168
2023-04-13T01:42:09.000Z,167
2023-04-13T01:43:25.000Z,167
2023-04-13T01:44:41.000Z,174
2023-04-13T01:45:56.000Z,190
2023-04-13T01:47:13.000Z,195
2023-04-13T01:48:29.000Z,196
2023-04-13T01:49:45.000Z,202
2023-04-13T01:51:01.000Z,202
2023-04-13T01:52:18.000Z,191
2023-04-13T01:53:34.000Z,187
2023-04-13T01:54:50.000Z,89
2023-04-13T01:56:06.000Z,533
2023-04-13T01:57:23.000Z,530
2023-04-13T01:58:39.000Z,530
2023-04-13T01:59:55.000Z,531
2023-04-13T02:01:11.000Z,522
2023-04-13T02:02:26.000Z,459
2023-04-13T02:03:43.000Z,457
2023-04-13T02:04:59.000Z,446
2023-04-13T02:06:15.000Z,446
2023-04-13T02:07:31.000Z,438
2023-04-13T02:08:48.000Z,438
2023-04-13T02:10:04.000Z,433
2023-04-13T02:11:20.000Z,422
2023-04-13T02:12:36.000Z,415
2023-04-13T02:13:53.000Z,397
2023-04-13T02:15:09.000Z,397
2023-04-13T02:16:25.000Z,394
2023-04-13T02:17:41.000Z,384
2023-04-13T02:18:57.000Z,374
2023-04-13T02:20:13.000Z,361
2023-04-13T02:21:29.000Z,351
2023-04-13T02:22:45.000Z,342
2023-04-13T02:24:01.000Z,337
2023-04-13T02:25:18.000Z,328
2023-04-13T02:26:34.000Z,316
2023-04-13T02:27:50.000Z,301
2023-04-13T02:29:06.000Z,293
2023-04-13T02:30:23.000Z,284
2023-04-13T02:31:39.000Z,270
2023-04-13T02:32:55.000Z,259
2023-04-13T02:34:11.000Z,248
2023-04-13T02:35:27.000Z,240
2023-04-13T02:36:43.000Z,227
2023-04-13T02:37:59.000Z,217
2023-04-13T02:39:15.000Z,203
2023-04-13T02:40:32.000Z,202
2023-04-13T02:41:48.000Z,188
2023-04-13T02:43:04.000Z,188
2023-04-13T02:44:20.000Z,182
2023-04-13T02:45:36.000Z,179
2023-04-13T02:46:53.000Z,170
2023-04-13T02:48:09.000Z,168
2023-04-13T02:49:25.000Z,168
2023-04-13T02:50:41.000Z,168
2023-04-13T02:51:57.000Z,170
2023-04-13T02:53:13.000Z,175
2023-04-13T02:54:29.000Z,174
2023-04-13T02:55:45.000Z,175
2023-04-13T02:57:02.000Z,173
2023-04-13T02:58:18.000Z,176
2023-04-13T02:59:34.000Z,169
2023-04-13T03:00:50.000Z,162
2023-04-13T03:02:07.000Z,165
2023-04-13T03:03:23.000Z,163
2023-04-13T03:04:39.000Z,163
2023-04-13T03:05:55.000Z,166
2023-04-13T03:07:11.000Z,162
2023-04-13T03:08:27.000Z,162
2023-04-13T03:09:43.000Z,164
2023-04-13T03:10:59.000Z,164
2023-04-13T03:12:15.000Z,160
2023-04-13T03:13:32.000Z,163
2023-04-13T03:14:48.000Z,166
2023-04-13T03:16:04.000Z,166
2023-04-13T03:17:20.000Z,162
2023-04-13T03:18:37.000Z,158
2023-04-13T03:19:53.000Z,146
2023-04-13T03:21:09.000Z,148
2023-04-13T03:22:25.000Z,151
2023-04-13T03:23:42.000Z,151
2023-04-13T03:24:57.000Z,152
2023-04-13T03:26:13.000Z,151
2023-04-13T03:27:29.000Z,158
2023-04-13T03:28:45.000Z,165
2023-04-13T03:30:02.000Z,166
2023-04-13T03:31:18.000Z,171
2023-04-13T03:32:34.000Z,172
2023-04-13T03:33:50.000Z,172
2023-04-13T03:35:07.000Z,178
2023-04-13T03:36:23.000Z,172
2023-04-13T03:37:39.000Z,167
2023-04-13T03:38:55.000Z,168
2023-04-13T03:40:12.000Z,169
2023-04-13T03:41:28.000Z,167
2023-04-13T03:42:43.000Z,163
2023-04-13T03:43:59.000Z,164
2023-04-13T03:45:16.000Z,165
2023-04-13T03:46:32.000Z,163
2023-04-13T03:47:47.000Z,165
2023-04-13T03:49:03.000Z,165
2023-04-13T03:50:20.000Z,163
2023-04-13T03:51:36.000Z,162
2023-04-13T03:52:52.000Z,163
2023-04-13T03:54:08.000Z,162
2023-04-13T03:55:24.000Z,160
2023-04-13T03:56:41.000Z,152
2023-04-13T03:57:57.000Z,154
2023-04-13T03:59:13.000Z,154
2023-04-13T04:00:29.000Z,153
2023-04-13T04:01:46.000Z,154
2023-04-13T04:03:02.000Z,152
2023-04-13T04:05:34.000Z,154
2023-04-13T04:06:50.000Z,152
2023-04-13T04:08:06.000Z,154
2023-04-13T04:09:22.000Z,154
2023-04-13T04:10:38.000Z,153
2023-04-13T04:11:55.000Z,152
2023-04-13T04:13:11.000Z,155
2023-04-13T04:14:27.000Z,156
2023-04-13T04:15:43.000Z,151
2023-04-13T04:18:16.000Z,151
2023-04-13T04:19:32.000Z,152
2023-04-13T04:20:48.000Z,154
2023-04-13T04:22:04.000Z,155
2023-04-13T04:23:20.000Z,158
2023-04-13T04:24:36.000Z,163
2023-04-13T04:25:52.000Z,168
2023-04-13T04:27:08.000Z,168
2023-04-13T04:28:25.000Z,170
2023-04-13T04:30:57.000Z,171
2023-04-13T04:32:12.000Z,176
2023-04-13T04:33:28.000Z,181
2023-04-13T04:34:44.000Z,150
2023-04-13T04:36:00.000Z,34
2023-04-13T04:37:16.000Z,45
2023-04-13T04:38:32.000Z,80
2023-04-13T04:39:49.000Z,72
2023-04-13T04:41:05.000Z,55
2023-04-13T04:42:21.000Z,45
2023-04-13T04:46:10.000Z,121
2023-04-13T04:47:26.000Z,183
2023-04-13T04:48:41.000Z,283
2023-04-13T04:49:57.000Z,305
2023-04-13T04:51:13.000Z,320
2023-04-13T04:52:29.000Z,342
2023-04-13T04:53:45.000Z,366
2023-04-13T04:55:02.000Z,385
2023-04-13T04:56:18.000Z,416
2023-04-13T04:57:34.000Z,438
2023-04-13T04:58:50.000Z,469
2023-04-13T05:00:07.000Z,502
2023-04-13T05:01:23.000Z,501
2023-04-13T05:02:39.000Z,572
2023-04-13T05:03:54.000Z,669
2023-04-13T05:05:09.000Z,554
2023-04-13T05:06:26.000Z,550
2023-04-13T05:07:42.000Z,648
2023-04-13T05:08:58.000Z,686
2023-04-13T05:10:14.000Z,702
2023-04-13T05:11:31.000Z,719
2023-04-13T05:12:47.000Z,760
2023-04-13T05:14:03.000Z,787
2023-04-13T05:15:19.000Z,812
2023-04-13T05:16:36.000Z,767
2023-04-13T05:17:51.000Z,793
2023-04-13T05:19:06.000Z,836
2023-04-13T05:20:22.000Z,888
2023-04-13T05:21:39.000Z,896
2023-04-13T05:22:55.000Z,907
2023-04-13T05:24:11.000Z,936
2023-04-13T05:25:27.000Z,930
2023-04-13T05:26:44.000Z,946
2023-04-13T05:28:00.000Z,986
2023-04-13T05:29:16.000Z,1007
2023-04-13T05:30:32.000Z,931
2023-04-13T05:31:48.000Z,733
2023-04-13T05:33:05.000Z,1034
2023-04-13T05:34:21.000Z,885
2023-04-13T05:35:36.000Z,1232
2023-04-13T05:38:09.000Z,1056
2023-04-13T05:39:25.000Z,1558
2023-04-13T05:40:41.000Z,894
2023-04-13T05:41:57.000Z,1250
2023-04-13T05:43:14.000Z,1451
2023-04-13T05:44:30.000Z,1511
2023-04-13T05:45:46.000Z,2118
2023-04-13T05:47:02.000Z,1669
2023-04-13T05:48:19.000Z,2163
2023-04-13T05:49:35.000Z,3733
2023-04-13T05:50:51.000Z,4257
2023-04-13T05:52:06.000Z,4579
2023-04-13T05:53:22.000Z,4861
2023-04-13T05:54:39.000Z,4787
2023-04-13T05:55:55.000Z,3784
2023-04-13T05:57:11.000Z,3490
2023-04-13T05:58:27.000Z,3323
2023-04-13T05:59:44.000Z,2672
2023-04-13T06:01:00.000Z,2990
2023-04-13T06:02:16.000Z,3361
2023-04-13T06:03:32.000Z,3204
2023-04-13T06:04:49.000Z,3058
2023-04-13T06:06:05.000Z,2987
2023-04-13T06:07:21.000Z,3130
2023-04-13T06:08:36.000Z,3123
2023-04-13T06:09:53.000Z,3248
2023-04-13T06:11:09.000Z,3379
2023-04-13T06:12:25.000Z,3341
2023-04-13T06:13:41.000Z,3287
2023-04-13T06:14:57.000Z,3176
2023-04-13T06:17:30.000Z,2865
2023-04-13T06:18:46.000Z,2889
2023-04-13T06:20:02.000Z,3072
2023-04-13T06:21:19.000Z,3243
2023-04-13T06:22:35.000Z,3228
2023-04-13T06:23:51.000Z,2927
2023-04-13T06:25:06.000Z,2831
2023-04-13T06:26:23.000Z,2932
2023-04-13T06:27:39.000Z,2563
2023-04-13T06:28:55.000Z,3413
2023-04-13T06:30:11.000Z,4275
2023-04-13T06:31:28.000Z,3547
2023-04-13T06:32:44.000Z,3031
2023-04-13T06:34:00.000Z,3257
2023-04-13T06:35:16.000Z,4107
2023-04-13T06:36:32.000Z,3450
2023-04-13T06:37:49.000Z,4120
2023-04-13T06:40:21.000Z,4659
2023-04-13T06:41:36.000Z,4322
2023-04-13T06:42:53.000Z,4014
2023-04-13T06:44:09.000Z,3738
2023-04-13T06:45:25.000Z,3834
2023-04-13T06:47:58.000Z,4547
2023-04-13T06:49:14.000Z,4598
2023-04-13T06:50:30.000Z,3957
2023-04-13T06:51:46.000Z,3655
2023-04-13T06:53:03.000Z,5201
2023-04-13T06:54:19.000Z,4940
2023-04-13T06:55:35.000Z,4109
2023-04-13T06:56:51.000Z,3935
2023-04-13T06:58:06.000Z,3378
2023-04-13T06:59:23.000Z,4365
2023-04-13T07:00:39.000Z,4358
2023-04-13T07:01:55.000Z,4150
2023-04-13T07:03:11.000Z,4245
2023-04-13T07:04:28.000Z,3588
2023-04-13T07:05:44.000Z,3220
2023-04-13T07:07:00.000Z,3002
2023-04-13T07:08:16.000Z,2655
2023-04-13T07:09:33.000Z,4488
2023-04-13T07:10:49.000Z,4435
2023-04-13T07:12:05.000Z,4505
2023-04-13T07:13:21.000Z,4471
2023-04-13T07:15:53.000Z,5018
2023-04-13T07:17:09.000Z,3990
2023-04-13T07:18:25.000Z,5702
2023-04-13T07:19:41.000Z,5572
2023-04-13T07:22:14.000Z,5341
2023-04-13T07:23:30.000Z,4890
2023-04-13T07:24:46.000Z,5025
2023-04-13T07:26:03.000Z,5632
2023-04-13T07:27:19.000Z,3870
2023-04-13T07:28:35.000Z,6758
2023-04-13T07:29:51.000Z,6257
2023-04-13T07:31:07.000Z,5401
2023-04-13T07:32:23.000Z,6227
2023-04-13T07:33:39.000Z,6065
2023-04-13T07:34:55.000Z,6060
2023-04-13T07:36:12.000Z,6283
2023-04-13T07:37:28.000Z,6513
2023-04-13T07:38:44.000Z,6527
2023-04-13T07:40:00.000Z,5719
2023-04-13T07:41:16.000Z,5393
2023-04-13T07:42:33.000Z,4870
2023-04-13T07:43:49.000Z,6101
2023-04-13T07:45:05.000Z,9681
2023-04-13T07:46:21.000Z,10939
2023-04-13T07:47:38.000Z,9880
2023-04-13T07:48:53.000Z,8684
2023-04-13T07:50:09.000Z,8917
2023-04-13T07:51:25.000Z,9851
2023-04-13T07:53:58.000Z,8394
2023-04-13T07:55:14.000Z,8326
2023-04-13T07:56:30.000Z,8632
2023-04-13T07:57:47.000Z,8901
2023-04-13T07:59:03.000Z,9776
2023-04-13T08:00:19.000Z,10002
2023-04-13T08:01:35.000Z,8099
2023-04-13T08:02:50.000Z,8409
2023-04-13T08:04:07.000Z,9169
2023-04-13T08:06:39.681Z,9971
2023-04-13T08:07:55.000Z,9753
2023-04-13T08:09:12.000Z,9194
2023-04-13T08:10:28.000Z,8524
2023-04-13T08:11:44.000Z,8852
2023-04-13T08:13:00.000Z,8704
2023-04-13T08:14:17.000Z,9056
2023-04-13T08:15:33.000Z,7366
2023-04-13T08:16:49.000Z,4653
2023-04-13T08:18:05.000Z,5947
2023-04-13T08:19:21.000Z,5654
2023-04-13T08:20:37.000Z,3381
2023-04-13T08:21:53.000Z,2873
2023-04-13T08:23:09.000Z,4139
2023-04-13T08:24:25.000Z,4578
2023-04-13T08:25:42.000Z,7966
2023-04-13T08:26:58.000Z,7918
2023-04-13T08:28:14.000Z,6491
2023-04-13T08:29:30.000Z,4920
2023-04-13T08:32:03.000Z,4637
2023-04-13T08:33:19.000Z,3706
2023-04-13T08:34:35.000Z,2395
2023-04-13T08:35:52.000Z,2879
2023-04-13T08:37:07.000Z,2420
2023-04-13T08:38:23.000Z,4042
2023-04-13T08:39:39.000Z,7341
2023-04-13T08:40:56.000Z,4798
2023-04-13T08:42:12.000Z,3631
2023-04-13T08:43:28.000Z,6377
2023-04-13T08:44:44.000Z,6849
2023-04-13T08:46:00.000Z,8740
2023-04-13T08:47:17.000Z,5918
2023-04-13T08:48:33.000Z,4342
2023-04-13T08:49:49.000Z,4682
2023-04-13T08:51:05.000Z,3827
2023-04-13T08:52:22.000Z,2812
2023-04-13T08:53:37.000Z,2660
2023-04-13T08:54:53.000Z,2667
2023-04-13T08:56:09.000Z,4299
2023-04-13T08:57:26.000Z,4629
2023-04-13T08:58:42.000Z,3726
2023-04-13T08:59:58.000Z,5070
2023-04-13T09:01:14.000Z,5274
2023-04-13T09:02:31.000Z,4741
2023-04-13T09:03:47.000Z,4568
2023-04-13T09:05:03.000Z,4775
2023-04-13T09:06:19.000Z,6305
2023-04-13T09:07:35.000Z,5461
2023-04-13T09:08:52.000Z,4721
2023-04-13T09:10:08.000Z,5869
2023-04-13T09:11:23.000Z,6127
2023-04-13T09:12:39.000Z,8202
2023-04-13T09:13:56.000Z,7223
2023-04-13T09:15:12.000Z,7775
2023-04-13T09:16:28.000Z,9139
2023-04-13T09:17:44.000Z,7833
2023-04-13T09:19:01.000Z,8034
2023-04-13T09:20:17.000Z,9689
2023-04-13T09:21:33.000Z,12375
2023-04-13T09:22:49.000Z,11069
2023-04-13T09:24:06.000Z,7348
2023-04-13T09:25:22.000Z,9687
2023-04-13T09:26:38.000Z,11131
2023-04-13T09:27:53.000Z,10273
2023-04-13T09:29:09.000Z,9937
2023-04-13T09:30:26.000Z,6772
2023-04-13T09:31:42.000Z,8640
2023-04-13T09:32:58.000Z,8193
2023-04-13T09:34:14.000Z,6454
2023-04-13T09:35:31.000Z,5677
2023-04-13T09:36:47.000Z,4696
2023-04-13T09:38:03.000Z,4898
2023-04-13T09:39:19.000Z,5448
2023-04-13T09:40:36.000Z,9532
2023-04-13T09:41:52.000Z,13439
2023-04-13T09:43:08.000Z,12909
2023-04-13T09:44:23.000Z,14557
2023-04-13T09:45:40.000Z,12590
2023-04-13T09:46:56.000Z,12745
2023-04-13T09:48:12.000Z,11308
2023-04-13T09:49:28.000Z,10578
2023-04-13T09:50:44.000Z,14077
2023-04-13T09:52:01.000Z,14058
2023-04-13T09:53:17.000Z,13102
2023-04-13T09:54:33.000Z,9761
2023-04-13T09:55:49.000Z,12090
2023-04-13T09:57:06.000Z,13899
2023-04-13T09:58:22.000Z,11160
2023-04-13T09:59:38.000Z,11089
2023-04-13T10:00:53.000Z,10966
2023-04-13T10:02:10.000Z,14818
2023-04-13T10:03:26.000Z,14331
2023-04-13T10:04:42.000Z,13195
2023-04-13T10:05:58.000Z,15507
2023-04-13T10:07:15.000Z,12382
2023-04-13T10:08:31.000Z,11937
2023-04-13T10:09:47.000Z,9904
2023-04-13T10:11:03.000Z,7949
2023-04-13T10:12:19.000Z,8633
2023-04-13T10:13:36.000Z,5643
2023-04-13T10:14:52.000Z,8474
2023-04-13T10:17:24.000Z,11379
2023-04-13T10:18:40.000Z,10608
2023-04-13T10:19:56.000Z,9941
2023-04-13T10:21:12.000Z,13184
2023-04-13T10:22:28.000Z,12396
2023-04-13T10:23:45.000Z,8998
2023-04-13T10:25:01.000Z,13111
2023-04-13T10:26:17.000Z,14566
2023-04-13T10:27:33.000Z,16895
2023-04-13T10:28:50.000Z,15118
2023-04-13T10:30:06.000Z,13017
2023-04-13T10:31:22.000Z,14951
2023-04-13T10:32:38.000Z,14518
2023-04-13T10:33:54.000Z,10702
2023-04-13T10:36:26.000Z,11438
2023-04-13T10:37:42.000Z,13568
2023-04-13T10:38:58.000Z,13564
2023-04-13T10:40:15.000Z,11118
2023-04-13T10:42:47.000Z,14034
2023-04-13T10:44:02.000Z,12925
2023-04-13T10:45:18.000Z,13638
2023-04-13T10:46:34.000Z,15093
2023-04-13T10:47:50.000Z,15675
2023-04-13T10:49:06.000Z,14956
2023-04-13T10:50:23.000Z,10653
2023-04-13T10:51:39.000Z,10994
2023-04-13T10:52:55.000Z,11099
2023-04-13T10:54:11.000Z,9295
2023-04-13T10:55:27.000Z,8135
2023-04-13T10:56:44.000Z,4974
2023-04-13T10:57:59.000Z,8372
2023-04-13T10:59:14.000Z,8736
2023-04-13T11:00:30.000Z,10818
2023-04-13T11:01:47.000Z,10171
2023-04-13T11:03:03.000Z,6891
2023-04-13T11:04:19.000Z,10808
2023-04-13T11:05:35.000Z,8762
2023-04-13T11:06:52.000Z,6551
2023-04-13T11:08:08.000Z,5836
2023-04-13T11:09:24.000Z,6372
2023-04-13T11:10:40.000Z,4899
2023-04-13T11:11:57.000Z,5816
2023-04-13T11:13:13.000Z,6828
2023-04-13T11:14:29.000Z,5448
2023-04-13T11:15:44.000Z,4442
2023-04-13T11:17:01.000Z,3591
2023-04-13T11:18:17.000Z,3498
2023-04-13T11:19:33.000Z,3906
2023-04-13T11:20:49.000Z,7638
2023-04-13T11:22:05.000Z,8400
2023-04-13T11:23:22.000Z,11745
2023-04-13T11:24:38.000Z,15116
2023-04-13T11:25:54.000Z,16153
2023-04-13T11:27:10.000Z,18107
2023-04-13T11:28:27.000Z,13644
2023-04-13T11:29:43.000Z,15897
2023-04-13T11:30:59.000Z,16569
2023-04-13T11:32:14.000Z,13122
2023-04-13T11:33:31.000Z,12578
2023-04-13T11:34:47.000Z,12115
2023-04-13T11:37:19.000Z,6404
2023-04-13T11:38:36.000Z,8489
2023-04-13T11:39:52.000Z,11077
2023-04-13T11:41:08.000Z,8466
2023-04-13T11:42:24.000Z,7333
2023-04-13T11:43:40.000Z,11985
2023-04-13T11:44:57.000Z,15276
2023-04-13T11:46:13.000Z,10861
2023-04-13T11:47:29.000Z,9144
2023-04-13T11:48:45.000Z,12606
2023-04-13T11:50:01.000Z,13656
2023-04-13T11:51:17.000Z,10013
2023-04-13T11:52:33.000Z,10736
2023-04-13T11:53:49.000Z,11640
2023-04-13T11:55:06.000Z,10041
2023-04-13T11:56:22.000Z,7230
2023-04-13T11:57:38.000Z,9016
2023-04-13T11:58:54.000Z,8620
2023-04-13T12:00:10.000Z,9968
2023-04-13T12:01:27.000Z,14042
2023-04-13T12:02:43.000Z,10985
2023-04-13T12:03:59.000Z,8746
2023-04-13T12:05:15.000Z,8107
2023-04-13T12:06:31.000Z,7473
2023-04-13T12:07:47.000Z,5881
2023-04-13T12:09:03.000Z,8336
2023-04-13T12:10:19.000Z,8451
2023-04-13T12:11:36.000Z,6584
2023-04-13T12:12:52.000Z,5383
2023-04-13T12:14:08.000Z,5564
2023-04-13T12:15:24.000Z,4909
2023-04-13T12:16:41.000Z,7313
2023-04-13T12:17:56.000Z,14882
2023-04-13T12:19:12.000Z,12630
2023-04-13T12:20:28.000Z,13151
2023-04-13T12:21:45.000Z,14687
2023-04-13T12:23:01.000Z,14019
2023-04-13T12:24:17.000Z,13920
2023-04-13T12:25:33.000Z,18946
2023-04-13T12:26:49.000Z,14761
2023-04-13T12:28:06.000Z,15480
2023-04-13T12:29:22.000Z,14152
2023-04-13T12:30:38.000Z,13067
2023-04-13T12:31:54.000Z,13437
2023-04-13T12:33:11.000Z,9355
2023-04-13T12:34:27.000Z,9985
2023-04-13T12:35:42.000Z,8867
2023-04-13T12:36:58.000Z,10606
2023-04-13T12:38:15.000Z,12629
2023-04-13T12:39:31.000Z,15635
2023-04-13T12:40:47.000Z,12287
2023-04-13T12:42:03.000Z,11235
2023-04-13T12:43:19.000Z,14152
2023-04-13T12:44:36.000Z,14224
2023-04-13T12:45:52.000Z,13725
2023-04-13T12:47:08.000Z,12703
2023-04-13T12:48:24.000Z,13783
2023-04-13T12:49:41.000Z,11077
2023-04-13T12:50:57.000Z,13361
2023-04-13T12:52:12.000Z,10854
2023-04-13T12:53:28.000Z,9059
2023-04-13T12:54:45.000Z,7101
2023-04-13T12:56:01.000Z,6780
2023-04-13T12:57:17.000Z,6456
2023-04-13T12:58:33.000Z,6374
2023-04-13T12:59:50.000Z,6397
2023-04-13T13:01:06.000Z,5985
2023-04-13T13:02:22.000Z,5260
2023-04-13T13:03:38.000Z,5267
2023-04-13T13:04:54.000Z,4953
2023-04-13T13:06:11.000Z,4480
2023-04-13T13:07:27.000Z,3555
2023-04-13T13:08:42.000Z,2903
2023-04-13T13:09:58.000Z,2659
2023-04-13T13:11:15.000Z,3737
2023-04-13T13:12:31.000Z,8449
2023-04-13T13:13:47.000Z,13300
2023-04-13T13:15:03.000Z,10910
2023-04-13T13:16:20.000Z,8677
2023-04-13T13:17:36.000Z,6982
2023-04-13T13:18:52.000Z,6040
2023-04-13T13:20:08.000Z,7741
2023-04-13T13:21:25.000Z,7668
2023-04-13T13:22:41.000Z,7917
2023-04-13T13:25:13.000Z,8198
2023-04-13T13:26:28.000Z,10459
2023-04-13T13:27:45.000Z,14072
2023-04-13T13:29:01.000Z,13286
2023-04-13T13:30:17.000Z,10648
2023-04-13T13:31:33.000Z,10716
2023-04-13T13:32:50.000Z,12202
2023-04-13T13:34:06.000Z,14320
2023-04-13T13:35:22.000Z,16041
2023-04-13T13:36:38.000Z,15027
2023-04-13T13:37:55.000Z,17569
2023-04-13T13:39:11.000Z,15635
2023-04-13T13:40:27.000Z,24872
2023-04-13T13:41:43.000Z,20060
2023-04-13T13:43:00.000Z,16367
2023-04-13T13:44:15.000Z,16959
2023-04-13T13:45:31.000Z,7538
2023-04-13T13:46:47.000Z,65363
2023-04-13T13:48:03.000Z,7443
2023-04-13T13:49:20.000Z,73839
2023-04-13T13:50:36.000Z,71166
2023-04-13T13:51:52.000Z,32409
2023-04-13T13:53:08.000Z,5846
2023-04-13T13:54:25.000Z,62095
2023-04-13T13:55:41.000Z,12278
2023-04-13T13:56:57.000Z,13249
2023-04-13T13:58:13.000Z,8069
2023-04-13T13:59:30.000Z,72123
2023-04-13T14:00:45.000Z,31831
2023-04-13T14:02:01.000Z,11793
2023-04-13T14:03:17.000Z,8830
2023-04-13T14:04:34.000Z,6927
2023-04-13T14:05:50.000Z,9482
2023-04-13T14:07:06.000Z,3576
2023-04-13T14:08:22.000Z,4721
2023-04-13T14:09:38.000Z,33762
2023-04-13T14:10:55.000Z,22248
2023-04-13T14:12:11.000Z,24168
2023-04-13T14:13:27.000Z,15352
2023-04-13T14:14:43.000Z,4383
2023-04-13T14:16:00.000Z,20469
2023-04-13T14:17:15.000Z,77778
2023-04-13T14:18:31.000Z,67829
2023-04-13T14:19:47.000Z,17599
2023-04-13T14:21:04.000Z,67476
2023-04-13T14:22:20.000Z,14329
2023-04-13T14:23:36.000Z,72165
2023-04-13T14:24:52.000Z,40190
2023-04-13T14:26:09.000Z,26713
2023-04-13T14:27:25.000Z,4788
2023-04-13T14:28:41.000Z,33228
2023-04-13T14:29:57.000Z,66701
2023-04-13T14:31:13.000Z,22770
2023-04-13T14:32:30.000Z,11837
2023-04-13T14:33:46.000Z,13277
2023-04-13T14:35:01.000Z,9557
2023-04-13T14:36:17.000Z,7464
2023-04-13T14:37:34.000Z,7104
2023-04-13T14:38:50.000Z,4007
2023-04-13T14:40:06.000Z,29479
2023-04-13T14:41:22.000Z,33445
2023-04-13T14:42:38.000Z,29524
2023-04-13T14:43:53.000Z,26891
2023-04-13T14:45:08.000Z,7947
2023-04-13T14:46:23.000Z,7067
2023-04-13T14:47:40.000Z,5795
2023-04-13T14:50:12.000Z,3956
2023-04-13T14:51:28.000Z,29176
2023-04-13T14:52:45.000Z,4638
2023-04-13T14:54:01.000Z,30372
2023-04-13T14:55:17.000Z,29633
2023-04-13T14:56:33.000Z,32715
2023-04-13T14:57:49.000Z,31760
2023-04-13T14:59:06.000Z,31261
2023-04-13T15:00:22.000Z,31623
2023-04-13T15:01:38.000Z,27249
2023-04-13T15:02:53.000Z,34459
2023-04-13T15:04:10.000Z,16899
2023-04-13T15:05:26.000Z,3565
2023-04-13T15:06:42.000Z,33477
2023-04-13T15:07:58.000Z,29990
2023-04-13T15:09:15.000Z,30371
2023-04-13T15:10:31.000Z,29808
2023-04-13T15:11:47.000Z,30044
2023-04-13T15:13:02.000Z,25519
2023-04-13T15:14:19.000Z,20002
2023-04-13T15:15:34.000Z,20585
2023-04-13T15:16:49.000Z,19509
2023-04-13T15:18:05.000Z,14592
2023-04-13T15:19:22.000Z,17870
2023-04-13T15:20:38.000Z,18475
2023-04-13T15:21:54.000Z,18447
2023-04-13T15:23:10.000Z,17092
2023-04-13T15:25:43.000Z,14988
2023-04-13T15:26:59.000Z,13466
2023-04-13T15:28:15.000Z,12192
2023-04-13T15:30:48.000Z,10820
2023-04-13T15:32:03.000Z,8654
2023-04-13T15:33:18.000Z,3699
2023-04-13T15:34:34.000Z,7356
2023-04-13T15:35:51.000Z,10979
2023-04-13T15:37:07.000Z,11270
2023-04-13T15:38:23.000Z,8009
2023-04-13T15:39:39.000Z,6944
2023-04-13T15:40:56.000Z,4522
2023-04-13T15:42:12.000Z,10704
2023-04-13T15:43:28.000Z,12695
2023-04-13T15:44:44.000Z,13713
2023-04-13T15:46:00.000Z,10259
2023-04-13T15:47:15.000Z,12029
2023-04-13T15:48:31.000Z,11725
2023-04-13T15:49:47.000Z,11092
2023-04-13T15:51:03.000Z,10494
2023-04-13T15:52:20.000Z,10060
2023-04-13T15:53:36.000Z,10051
2023-04-13T15:56:08.000Z,9901
2023-04-13T15:57:25.000Z,10011
2023-04-13T15:58:41.000Z,9376
2023-04-13T15:59:57.000Z,6486
2023-04-13T16:01:13.000Z,6308
2023-04-13T16:02:30.000Z,3949
2023-04-13T16:03:45.000Z,11105
2023-04-13T16:05:01.000Z,9515
2023-04-13T16:06:17.000Z,7058
2023-04-13T16:07:34.000Z,10330
2023-04-13T16:08:50.000Z,10061
2023-04-13T16:10:06.000Z,6237
2023-04-13T16:11:22.000Z,3489
2023-04-13T16:12:38.000Z,12272
2023-04-13T16:13:55.000Z,16142
2023-04-13T16:15:11.000Z,16177
2023-04-13T16:16:27.000Z,14082
2023-04-13T16:17:43.000Z,14874
2023-04-13T16:19:00.000Z,19833
2023-04-13T16:20:15.000Z,19714
2023-04-13T16:21:31.000Z,20957
2023-04-13T16:22:47.000Z,20372
2023-04-13T16:24:04.000Z,17055
2023-04-13T16:25:20.000Z,20569
2023-04-13T16:26:36.000Z,17427
2023-04-13T16:27:52.000Z,17728
2023-04-13T16:29:09.000Z,20321
2023-04-13T16:30:25.000Z,20167
2023-04-13T16:31:41.000Z,16224
2023-04-13T16:32:57.000Z,15924
2023-04-13T16:34:12.000Z,16131
2023-04-13T16:35:29.000Z,9892
2023-04-13T16:36:45.000Z,12222
2023-04-13T16:38:01.000Z,14681
2023-04-13T16:39:17.000Z,16137
2023-04-13T16:40:34.000Z,14495
2023-04-13T16:41:50.000Z,16864
2023-04-13T16:43:06.000Z,19451
2023-04-13T16:44:22.000Z,10996
2023-04-13T16:45:39.000Z,3333
2023-04-13T16:46:55.000Z,16819
2023-04-13T16:48:11.000Z,15635
2023-04-13T16:49:27.000Z,16831
2023-04-13T16:50:44.000Z,17832
2023-04-13T16:51:59.000Z,17408
2023-04-13T16:53:15.000Z,15990
2023-04-13T16:54:31.000Z,15018
2023-04-13T16:55:47.000Z,18428
2023-04-13T16:57:04.000Z,4500
2023-04-13T16:58:20.000Z,10182
2023-04-13T16:59:36.000Z,11965
2023-04-13T17:00:52.000Z,7355
2023-04-13T17:02:09.000Z,3060
2023-04-13T17:03:25.000Z,7395
2023-04-13T17:04:41.000Z,5676
2023-04-13T17:05:57.000Z,2662
2023-04-13T17:07:14.000Z,5383
2023-04-13T17:08:29.000Z,6815
2023-04-13T17:09:45.000Z,7025
2023-04-13T17:11:01.000Z,4888
2023-04-13T17:12:18.000Z,4720
2023-04-13T17:13:34.000Z,3336
2023-04-13T17:16:06.000Z,4858
2023-04-13T17:17:22.000Z,3725
2023-04-13T17:18:39.000Z,3404
2023-04-13T17:19:55.000Z,1393
2023-04-13T17:21:11.000Z,6450
2023-04-13T17:22:27.000Z,5009
2023-04-13T17:25:00.000Z,5767
2023-04-13T17:26:15.000Z,5524
2023-04-13T17:27:31.000Z,7092
2023-04-13T17:28:48.000Z,6837